Time;durP1;ratioP1;P1;durP2;ratioP2;P2;SDS_P1;SDS_P2;PMS_P1;PMS_P2;Temp;Humidity;BMP_temperature;BMP_pressure;BME280_temperature;BME280_humidity;BME280_pressure;Samples;Min_cycle;Max_cycle;Signal;HPM_P1;HPM_P2
2022/05/02 00:01:34;;;;;;;7.08;4.15;;;;;;;9.79;54.33;100805.44;1815230;78;21481;-57
2022/05/02 00:04:04;;;;;;;9.43;4.00;;;;;;;9.80;54.17;100805.25;1815428;79;21042;-58
2022/05/02 00:06:35;;;;;;;7.33;3.90;;;;;;;9.81;54.08;100808.84;1814897;79;21470;-58
2022/05/02 00:09:05;;;;;;;7.20;3.80;;;;;;;9.79;53.89;100809.03;1814924;79;21032;-58
2022/05/02 00:11:34;;;;;;;7.45;3.47;;;;;;;9.77;53.79;100800.14;1814995;79;21038;-58
2022/05/02 00:14:04;;;;;;;6.92;3.35;;;;;;;9.78;53.75;100800.48;1815093;79;21203;-57
2022/05/02 00:16:34;;;;;;;5.17;3.30;;;;;;;9.76;53.70;100796.22;1815089;79;21004;-57
2022/05/02 00:19:03;;;;;;;6.70;3.37;;;;;;;9.76;53.39;100801.18;1815126;79;21019;-57
2022/05/02 00:21:32;;;;;;;8.48;3.22;;;;;;;9.74;53.08;100796.37;1815110;79;21042;-57
2022/05/02 00:24:03;;;;;;;8.05;3.25;;;;;;;9.76;53.04;100800.33;1815163;79;21490;-58
2022/05/02 00:26:34;;;;;;;8.93;2.83;;;;;;;9.77;53.21;100796.56;1815080;79;21431;-56
2022/05/02 00:29:04;;;;;;;5.83;3.12;;;;;;;9.78;53.17;100799.63;1815254;79;21031;-60
2022/05/02 00:31:33;;;;;;;6.20;3.37;;;;;;;9.79;53.21;100796.71;1815087;79;21434;-57
2022/05/02 00:34:02;;;;;;;6.28;3.37;;;;;;;9.77;53.56;100796.04;1815377;78;21020;-58
2022/05/02 00:36:31;;;;;;;5.28;2.90;;;;;;;9.75;54.08;100791.27;1815429;79;21106;-57
2022/05/02 00:39:00;;;;;;;7.55;2.75;;;;;;;9.75;53.90;100793.13;1815074;79;21035;-58
2022/05/02 00:41:29;;;;;;;6.25;2.55;;;;;;;9.76;53.91;100790.75;1815356;79;21031;-57
2022/05/02 00:43:59;;;;;;;8.75;3.00;;;;;;;9.77;53.45;100798.78;1815193;79;21070;-57
2022/05/02 00:46:29;;;;;;;3.72;2.20;;;;;;;9.79;53.58;100803.55;1815232;79;21030;-57
2022/05/02 00:48:59;;;;;;;3.98;2.00;;;;;;;9.82;53.05;100796.86;1815115;79;21023;-57
2022/05/02 00:51:28;;;;;;;3.95;2.20;;;;;;;9.83;52.52;100794.45;1815043;79;20963;-58
2022/05/02 00:53:58;;;;;;;3.58;2.12;;;;;;;9.86;52.32;100795.46;1815090;79;21024;-59
2022/05/02 00:56:27;;;;;;;3.37;2.08;;;;;;;9.89;52.12;100795.61;1815184;79;21035;-57
2022/05/02 00:58:57;;;;;;;4.67;1.87;;;;;;;9.91;51.89;100796.27;1815110;79;21043;-58
2022/05/02 01:01:27;;;;;;;4.25;1.80;;;;;;;9.90;51.58;100794.58;1815089;79;20972;-57
2022/05/02 01:03:56;;;;;;;4.55;1.98;;;;;;;9.91;51.28;100788.06;1814999;79;21012;-56
2022/05/02 01:09:14;;;;;;;3.37;1.90;;;;;;;9.92;51.19;100786.52;1814999;79;21023;-56
2022/05/02 01:11:42;;;;;;;5.15;1.90;;;;;;;9.93;51.04;100786.84;1815226;79;20979;-57
2022/05/02 01:14:11;;;;;;;2.70;1.70;;;;;;;9.94;50.70;100786.33;1815026;79;21046;-57
2022/05/02 01:16:40;;;;;;;3.17;1.67;;;;;;;9.91;50.68;100782.59;1815006;79;21501;-57
2022/05/02 01:19:09;;;;;;;2.92;1.82;;;;;;;9.88;50.70;100778.34;1815146;79;21003;-57
2022/05/02 01:21:40;;;;;;;9.50;2.25;;;;;;;9.88;50.70;100787.91;1815145;79;21464;-58
2022/05/02 01:24:09;;;;;;;4.78;2.10;;;;;;;9.86;50.62;100783.14;1815065;79;20975;-57
2022/05/02 01:26:38;;;;;;;3.62;2.17;;;;;;;9.81;50.65;100778.73;1814968;79;21031;-58
2022/05/02 01:29:07;;;;;;;6.17;2.30;;;;;;;9.77;50.59;100782.87;1815390;79;21004;-56
2022/05/02 01:31:36;;;;;;;5.78;2.27;;;;;;;9.73;50.89;100778.25;1815370;79;21067;-58
2022/05/02 01:34:05;;;;;;;5.15;2.35;;;;;;;9.71;51.18;100774.84;1815114;79;20996;-57
2022/05/02 01:36:35;;;;;;;3.72;1.92;;;;;;;9.71;51.22;100780.84;1815056;79;21460;-56
2022/05/02 01:39:04;;;;;;;5.78;2.70;;;;;;;9.70;51.26;100778.63;1815132;79;21407;-57
2022/05/02 01:41:35;;;;;;;4.45;2.40;;;;;;;9.70;51.41;100779.14;1815087;79;21031;-57
2022/05/02 01:44:05;;;;;;;3.95;2.05;;;;;;;9.67;51.60;100778.98;1815250;79;21015;-56
2022/05/02 01:46:35;;;;;;;3.98;2.45;;;;;;;9.62;51.81;100778.68;1814972;79;21074;-58
2022/05/02 01:49:04;;;;;;;7.40;3.35;;;;;;;9.60;51.93;100778.02;1815173;78;21098;-58
2022/05/02 01:51:33;;;;;;;5.87;3.15;;;;;;;9.58;52.13;100778.71;1815183;79;21445;-57
2022/05/02 01:54:02;;;;;;;5.25;3.30;;;;;;;9.56;52.35;100776.67;1815227;79;21059;-58
2022/05/02 01:56:31;;;;;;;7.85;3.47;;;;;;;9.57;52.61;100780.27;1815189;78;21004;-57
2022/05/02 01:59:01;;;;;;;6.45;3.92;;;;;;;9.57;52.90;100777.01;1815284;79;21007;-58
2022/05/02 02:01:31;;;;;;;9.55;4.50;;;;;;;9.56;53.24;100776.67;1815372;79;20972;-58
2022/05/02 02:04:00;;;;;;;12.20;5.37;;;;;;;9.56;53.53;100778.05;1814993;78;21043;-57
2022/05/02 02:06:31;;;;;;;11.28;5.42;;;;;;;9.55;53.90;100776.34;1814985;79;20992;-57
2022/05/02 02:09:00;;;;;;;11.35;5.83;;;;;;;9.55;54.13;100777.70;1813846;79;21122;-57
2022/05/02 02:11:29;;;;;;;10.38;5.37;;;;;;;9.56;54.44;100773.94;1806437;79;21027;-58
2022/05/02 02:13:58;;;;;;;15.32;6.05;;;;;;;9.56;54.60;100776.67;1806535;79;21423;-59
2022/05/02 02:16:26;;;;;;;11.93;5.78;;;;;;;9.55;54.77;100777.70;1806649;79;21024;-57
2022/05/02 02:18:56;;;;;;;12.10;5.70;;;;;;;9.54;55.02;100780.11;1806363;79;21055;-57
2022/05/02 02:21:24;;;;;;;14.63;6.15;;;;;;;9.50;55.23;100778.77;1806223;79;21330;-57
2022/05/02 02:23:53;;;;;;;12.07;6.55;;;;;;;9.48;55.47;100778.10;1806224;79;21424;-57
2022/05/02 02:26:23;;;;;;;53.73;8.63;;;;;;;9.48;55.64;100780.84;1806225;79;21004;-57
2022/05/02 02:28:51;;;;;;;13.32;5.87;;;;;;;9.48;55.81;100772.63;1806232;79;21032;-57
2022/05/02 02:31:20;;;;;;;12.58;5.92;;;;;;;9.43;56.01;100777.28;1806195;79;21040;-58
2022/05/02 02:33:49;;;;;;;12.45;5.92;;;;;;;9.40;56.18;100778.16;1806244;79;21028;-56
2022/05/02 02:36:20;;;;;;;12.55;6.22;;;;;;;9.38;56.18;100775.60;1806233;79;21000;-58
2022/05/02 02:38:50;;;;;;;13.30;7.47;;;;;;;9.38;56.16;100774.75;1806214;79;20999;-58
2022/05/02 02:41:18;;;;;;;16.80;9.43;;;;;;;9.37;56.12;100773.90;1806196;79;21039;-57
2022/05/02 02:43:47;;;;;;;18.87;9.90;;;;;;;9.37;56.31;100773.90;1806216;79;21036;-57
2022/05/02 02:46:16;;;;;;;14.00;8.23;;;;;;;9.38;56.79;100776.12;1806337;79;21008;-58
2022/05/02 02:48:45;;;;;;;16.25;8.65;;;;;;;9.36;57.10;100772.71;1806241;79;21384;-57
2022/05/02 02:51:14;;;;;;;16.17;9.20;;;;;;;9.33;57.52;100773.92;1806391;79;20988;-57
2022/05/02 02:53:43;;;;;;;15.63;8.28;;;;;;;9.30;57.92;100770.70;1806486;79;21494;-57
2022/05/02 02:56:14;;;;;;;15.13;8.28;;;;;;;9.28;58.28;100776.86;1806465;79;21055;-56
2022/05/02 02:58:42;;;;;;;17.40;7.78;;;;;;;9.27;58.60;100776.02;1806264;79;21040;-56
2022/05/02 03:01:11;;;;;;;16.30;7.67;;;;;;;9.27;58.74;100780.12;1805966;79;21043;-58
2022/05/02 03:03:40;;;;;;;14.65;7.17;;;;;;;9.27;58.66;100777.38;1806294;79;21055;-59
2022/05/02 03:06:10;;;;;;;15.72;7.37;;;;;;;9.29;58.62;100775.84;1806452;79;21020;-58
2022/05/02 03:08:44;;;;;;;13.43;7.42;;;;;;;9.28;58.54;100772.25;1806027;79;21522;-58
2022/05/02 03:11:13;;;;;;;16.57;7.05;;;;;;;9.26;58.60;100777.56;1814272;79;21059;-57
2022/05/02 03:13:43;;;;;;;15.35;6.97;;;;;;;9.22;58.73;100777.07;1814839;78;21411;-57
2022/05/02 03:16:12;;;;;;;13.05;7.03;;;;;;;9.19;58.87;100782.90;1815155;79;20984;-58
2022/05/02 03:18:42;;;;;;;13.80;7.22;;;;;;;9.18;58.95;100788.03;1814714;79;21071;-57
2022/05/02 03:21:12;;;;;;;14.43;7.00;;;;;;;9.17;59.02;100779.49;1815174;79;21031;-57
2022/05/02 03:23:41;;;;;;;12.82;5.83;;;;;;;9.16;59.17;100784.11;1814934;79;21011;-57
2022/05/02 03:26:10;;;;;;;15.30;6.25;;;;;;;9.14;59.31;100783.44;1814956;79;20991;-57
2022/05/02 03:28:40;;;;;;;13.43;6.45;;;;;;;9.09;59.39;100784.45;1814668;78;21062;-58
2022/05/02 03:31:09;;;;;;;12.98;6.17;;;;;;;9.03;59.39;100787.91;1815107;79;21075;-59
2022/05/02 03:33:37;;;;;;;11.97;5.95;;;;;;;9.03;59.40;100789.78;1814644;79;21008;-57
2022/05/02 03:36:07;;;;;;;10.00;5.72;;;;;;;9.03;59.50;100787.05;1815272;79;21027;-56
2022/05/02 03:38:37;;;;;;;14.18;6.15;;;;;;;9.04;59.55;100793.70;1814982;79;21004;-57
2022/05/02 03:41:06;;;;;;;13.65;6.70;;;;;;;9.01;59.58;100798.16;1815206;79;21054;-57
2022/05/02 03:43:36;;;;;;;9.70;5.70;;;;;;;9.01;59.78;100795.95;1814847;79;21607;-58
2022/05/02 03:46:05;;;;;;;14.65;6.75;;;;;;;9.01;59.90;100802.27;1814921;79;21030;-59
2022/05/02 03:48:34;;;;;;;12.93;6.95;;;;;;;9.00;60.10;100796.97;1814826;79;21008;-56
2022/05/02 03:51:02;;;;;;;13.15;6.70;;;;;;;9.01;60.14;100802.78;1814991;78;21612;-57
2022/05/02 03:53:32;;;;;;;14.38;6.85;;;;;;;8.99;60.29;100796.13;1815242;79;20984;-58
2022/05/02 03:56:00;;;;;;;21.10;7.42;;;;;;;9.00;60.43;100796.46;1815136;79;21046;-58
2022/05/02 03:58:30;;;;;;;17.60;7.92;;;;;;;9.03;60.61;100793.88;1815039;79;21495;-57
2022/05/02 04:00:58;;;;;;;17.05;8.28;;;;;;;9.07;60.69;100797.45;1815269;79;21011;-59
2022/05/02 04:03:27;;;;;;;17.55;8.08;;;;;;;9.12;60.78;100796.95;1815264;79;21042;-58
2022/05/02 04:05:56;;;;;;;16.50;7.72;;;;;;;9.17;60.81;100795.89;1814987;79;21194;-56
2022/05/02 04:08:26;;;;;;;17.45;8.03;;;;;;;9.21;60.88;100798.61;1814985;79;21051;-57
2022/05/02 04:10:57;;;;;;;16.42;8.00;;;;;;;9.27;60.91;100799.25;1808946;78;21393;-58
2022/05/02 04:13:26;;;;;;;17.00;7.30;;;;;;;9.35;60.78;100801.09;1806358;79;21012;-58
2022/05/02 04:15:55;;;;;;;14.58;6.87;;;;;;;9.41;60.64;100801.22;1806345;79;21526;-58
2022/05/02 04:18:24;;;;;;;13.10;6.53;;;;;;;9.46;60.50;100798.80;1806085;79;21020;-57
2022/05/02 04:20:55;;;;;;;14.50;6.62;;;;;;;9.51;60.37;100802.36;1806379;79;20976;-58
2022/05/02 04:23:24;;;;;;;13.68;6.30;;;;;;;9.58;60.37;100807.44;1806118;79;21011;-58
2022/05/02 04:25:54;;;;;;;12.45;6.33;;;;;;;9.65;60.15;100807.56;1806508;79;21408;-58
2022/05/02 04:28:23;;;;;;;12.63;6.37;;;;;;;9.70;59.74;100805.98;1806431;79;21058;-58
2022/05/02 04:30:51;;;;;;;9.98;5.85;;;;;;;9.75;59.47;100810.42;1806372;79;20984;-57
2022/05/02 04:33:20;;;;;;;14.23;5.37;;;;;;;9.82;59.08;100810.55;1806214;79;21035;-58
2022/05/02 04:35:49;;;;;;;14.95;7.12;;;;;;;9.89;58.58;100808.78;1806235;79;21032;-57
2022/05/02 04:38:19;;;;;;;16.27;9.40;;;;;;;9.98;57.83;100802.72;1806251;79;21462;-57
2022/05/02 04:40:48;;;;;;;13.43;6.80;;;;;;;10.05;57.00;100803.16;1806283;79;21035;-58
2022/05/02 04:43:17;;;;;;;13.50;6.45;;;;;;;10.14;56.37;100811.64;1806399;79;20980;-57
2022/05/02 04:45:46;;;;;;;12.23;5.35;;;;;;;10.20;55.78;100804.61;1806229;79;21412;-58
2022/05/02 04:48:15;;;;;;;13.43;6.17;;;;;;;10.27;55.36;100801.97;1806283;79;21031;-58
2022/05/02 04:50:44;;;;;;;16.37;5.55;;;;;;;10.35;54.97;100804.63;1806272;79;21055;-59
2022/05/02 04:53:12;;;;;;;12.70;5.22;;;;;;;10.42;54.43;100802.36;1806212;79;21010;-59
2022/05/02 04:55:42;;;;;;;10.70;4.80;;;;;;;10.47;54.10;100799.91;1806246;79;21035;-57
2022/05/02 04:58:10;;;;;;;12.00;4.85;;;;;;;10.53;53.81;100796.94;1806251;79;21401;-56
2022/05/02 05:00:40;;;;;;;9.05;4.30;;;;;;;10.61;53.60;100801.48;1806171;79;21554;-58
2022/05/02 05:03:10;;;;;;;16.23;4.67;;;;;;;10.69;53.44;100802.23;1758687;79;21032;-58
2022/05/02 05:05:39;;;;;;;12.23;4.85;;;;;;;10.79;52.80;100801.43;1806216;79;21011;-58
2022/05/02 05:08:08;;;;;;;10.65;4.85;;;;;;;10.89;52.65;100794.81;1806325;79;20995;-58
2022/05/02 05:10:44;;;;;;;9.63;4.70;;;;;;;10.99;52.40;100788.00;1809513;79;21020;-58
2022/05/02 05:13:21;;;;;;;12.30;4.20;;;;;;;11.09;52.01;100785.83;1812951;79;21039;-59
2022/05/02 05:16:31;;;;;;;7.05;4.28;;;;;;;11.21;51.38;100793.05;1814764;79;21012;-57
2022/05/02 05:19:20;;;;;;;7.15;3.80;;;;;;;11.33;51.12;100790.13;1787215;80;21015;-58
2022/05/02 05:22:01;;;;;;;8.58;4.05;;;;;;;11.54;50.50;100795.33;1771452;80;21050;-59
2022/05/02 05:25:28;;;;;;;9.10;4.55;;;;;;;11.74;49.82;100795.89;1804357;79;21008;-57
2022/05/02 05:28:32;;;;;;;9.88;3.75;;;;;;;11.92;49.11;100792.72;1814712;79;21007;-58
2022/05/02 05:31:32;;;;;;;12.53;3.70;;;;;;;12.08;48.17;100792.97;1814687;79;21031;-58
2022/05/02 05:34:23;;;;;;;6.87;3.37;;;;;;;12.20;47.43;100790.00;1812628;79;21103;-59
2022/05/02 05:37:24;;;;;;;7.15;3.70;;;;;;;12.30;46.81;100798.75;1814770;79;20980;-59
2022/05/02 05:40:18;;;;;;;7.28;3.17;;;;;;;12.40;46.32;100795.69;1814748;79;21502;-58
2022/05/02 05:43:42;;;;;;;15.40;4.90;;;;;;;12.48;46.22;100790.56;1814979;79;21007;-57
2022/05/02 05:46:40;;;;;;;6.42;2.90;;;;;;;12.55;46.01;100788.70;1814421;79;21031;-57
2022/05/02 05:49:28;;;;;;;4.85;2.65;;;;;;;12.60;45.73;100780.17;1814672;79;21007;-57
2022/05/02 05:52:16;;;;;;;7.92;3.05;;;;;;;12.68;45.44;100784.66;1814678;79;21008;-58
2022/05/02 05:54:51;;;;;;;4.40;2.58;;;;;;;12.75;44.96;100781.95;1814788;79;21047;-58
2022/05/02 05:58:02;;;;;;;6.87;2.60;;;;;;;12.82;43.87;100783.69;1814409;79;21047;-59
2022/05/02 06:00:34;;;;;;;6.90;2.65;;;;;;;12.90;43.55;100778.02;1814651;79;21031;-58
2022/05/02 06:03:14;;;;;;;10.32;3.98;;;;;;;13.00;43.38;100784.03;1745625;82;21545;-59
2022/05/02 06:05:47;;;;;;;9.83;3.30;;;;;;;13.10;43.27;100778.67;1745796;82;21003;-58
2022/05/02 06:08:19;;;;;;;4.40;1.80;;;;;;;13.19;42.35;100780.23;1745753;82;21059;-58
2022/05/02 06:10:51;;;;;;;8.93;2.15;;;;;;;13.31;41.43;100780.80;1746382;82;21491;-58
2022/05/02 06:13:21;;;;;;;9.65;2.20;;;;;;;13.44;40.37;100779.15;1747754;82;21062;-57
2022/05/02 06:18:40;;;;;;;3.47;1.75;;;;;;;13.72;39.70;100776.28;1747886;82;21023;-59
2022/05/02 06:21:10;;;;;;;5.12;1.50;;;;;;;13.85;39.26;100780.43;1723992;82;21102;-58
2022/05/02 06:23:47;;;;;;;4.78;1.37;;;;;;;13.94;38.41;100770.91;1747949;82;21004;-58
2022/05/02 06:26:18;;;;;;;2.15;1.15;;;;;;;14.08;38.29;100772.61;1723960;82;21500;-60
2022/05/02 06:28:46;;;;;;;3.87;1.60;;;;;;;14.28;38.02;100775.36;1812042;79;21285;-59
2022/05/02 06:31:24;;;;;;;19.77;6.72;;;;;;;14.47;37.89;100775.94;1816959;79;21004;-58
2022/05/02 06:33:58;;;;;;;5.80;2.17;;;;;;;14.76;37.33;100780.66;1816971;79;21078;-58
2022/05/02 06:37:13;;;;;;;2.65;1.55;;;;;;;15.16;36.74;100773.13;1816988;79;21027;-58
2022/05/02 06:40:14;;;;;;;3.72;1.50;;;;;;;15.64;36.17;100770.81;1817033;79;21019;-59
2022/05/02 06:42:54;;;;;;;4.65;1.65;;;;;;;16.34;35.14;100770.20;1816596;79;21027;-60
2022/05/02 06:45:56;;;;;;;3.80;1.77;;;;;;;16.96;33.58;100770.27;1817077;79;20987;-58
2022/05/02 06:48:43;;;;;;;3.22;1.70;;;;;;;17.39;32.57;100761.84;1816662;79;21058;-61
2022/05/02 06:51:22;;;;;;;8.63;2.30;;;;;;;17.86;32.21;100763.45;1817171;79;21399;-62
2022/05/02 06:54:06;;;;;;;5.17;2.20;;;;;;;18.35;31.54;100758.94;1786461;79;21051;-60
2022/05/02 06:56:44;;;;;;;6.58;2.10;;;;;;;18.76;31.15;100760.47;1816834;79;20988;-61
2022/05/02 06:59:39;;;;;;;5.10;1.67;;;;;;;19.18;30.38;100755.05;1816547;79;21047;-59
2022/05/02 07:02:18;;;;;;;3.27;1.90;;;;;;;19.50;29.08;100755.95;1817018;79;21059;-59
2022/05/02 07:04:54;;;;;;;3.80;1.40;;;;;;;19.85;28.29;100757.24;1816954;79;21031;-58
2022/05/02 07:08:05;;;;;;;6.08;2.22;;;;;;;20.21;27.78;100754.56;1816956;79;20999;-59
2022/05/02 07:10:36;;;;;;;3.65;2.02;;;;;;;20.43;26.85;100748.56;1798846;79;21459;-59
2022/05/02 07:13:23;;;;;;;3.72;1.67;;;;;;;20.58;26.99;100752.97;1814675;79;21127;-58
2022/05/02 07:16:21;;;;;;;5.65;1.90;;;;;;;20.74;26.51;100749.02;1814844;79;21025;-58
2022/05/02 07:19:13;;;;;;;;;;;;;;;20.89;25.91;100746.48;1817399;79;21055;-59
2022/05/02 07:21:53;;;;;;;2.45;1.47;;;;;;;21.04;25.49;100742.51;1814948;79;20488;-58
2022/05/02 07:24:59;;;;;;;6.33;1.95;;;;;;;21.17;25.12;100745.45;1814649;79;21016;-60
2022/05/02 07:28:19;;;;;;;5.37;1.80;;;;;;;21.28;25.12;100736.70;1814869;79;20999;-59
2022/05/02 07:30:49;;;;;;;4.28;1.50;;;;;;;21.57;24.66;100741.53;1814810;79;21035;-59
2022/05/02 07:33:19;;;;;;;3.90;1.27;;;;;;;21.72;24.39;100736.11;1814685;79;21059;-59
2022/05/02 07:35:48;;;;;;;2.62;1.50;;;;;;;21.71;24.26;100733.88;1814680;79;21003;-58
2022/05/02 07:38:18;;;;;;;2.15;1.45;;;;;;;21.81;24.18;100739.55;1783891;79;21031;-59
2022/05/02 07:43:36;;;;;;;2.85;1.60;;;;;;;22.13;23.35;100739.63;1814925;79;21511;-57
2022/05/02 07:46:05;;;;;;;3.70;1.42;;;;;;;22.31;23.14;100741.73;1814604;79;21066;-59
2022/05/02 07:48:35;;;;;;;6.10;2.20;;;;;;;22.35;23.40;100738.14;1814655;79;21403;-57
2022/05/02 07:51:04;;;;;;;5.97;1.87;;;;;;;22.46;23.38;100744.08;1809213;79;21472;-60
2022/05/02 07:53:33;;;;;;;5.00;1.52;;;;;;;22.60;23.00;100741.66;1782580;80;21025;-61
2022/05/02 07:56:02;;;;;;;2.85;1.27;;;;;;;22.75;23.04;100736.73;1781982;79;21063;-58
2022/05/02 07:58:32;;;;;;;5.28;1.40;;;;;;;22.78;22.20;100734.83;1810059;79;21019;-58
2022/05/02 08:01:01;;;;;;;4.60;1.80;;;;;;;22.52;22.34;100730.16;1782818;80;21459;-59
2022/05/02 08:03:30;;;;;;;6.40;1.87;;;;;;;22.33;22.72;100723.60;1783151;80;21068;-59
2022/05/02 08:06:11;;;;;;;10.28;1.80;;;;;;;22.34;22.98;100721.66;1782080;79;21099;-62
2022/05/02 08:08:55;;;;;;;3.98;1.70;;;;;;;22.42;23.25;100723.94;1786862;79;21029;-58
2022/05/02 08:11:37;;;;;;;2.60;1.60;;;;;;;22.42;22.21;100716.41;1781239;79;21040;-59
2022/05/02 08:14:16;;;;;;;3.42;1.70;;;;;;;22.33;22.67;100726.39;1773942;80;20990;-58
2022/05/02 08:16:57;;;;;;;3.80;1.62;;;;;;;22.36;23.02;100726.41;1774311;81;21053;-59
2022/05/02 08:19:50;;;;;;;2.98;1.52;;;;;;;22.53;22.79;100719.27;1774717;81;21045;-59
2022/05/02 08:28:43;;;;;;;4.20;1.47;;;;;;;22.33;22.93;100715.23;1764158;80;21024;-58
2022/05/02 08:31:17;;;;;;;5.00;1.65;;;;;;;22.48;22.79;100716.45;1780043;80;21039;-60
2022/05/02 08:34:00;;;;;;;7.83;1.52;;;;;;;22.62;22.28;100700.34;1780043;80;21067;-59
2022/05/02 08:36:34;;;;;;;4.35;1.42;;;;;;;22.65;22.42;100702.59;1779735;80;21016;-60
2022/05/02 08:39:04;;;;;;;4.60;1.80;;;;;;;22.77;22.36;100702.41;1769910;80;21063;-61
2022/05/02 08:41:39;;;;;;;2.45;1.77;;;;;;;22.97;21.79;100705.89;1779945;80;21170;-59
2022/05/02 08:44:59;;;;;;;5.10;1.77;;;;;;;23.00;21.92;100696.41;1756093;80;21514;-58
2022/05/02 08:47:55;;;;;;;5.65;1.80;;;;;;;22.98;21.84;100690.25;1780292;80;21493;-60
2022/05/02 08:50:45;;;;;;;2.52;1.67;;;;;;;22.95;21.79;100688.00;1780344;80;21019;-61
2022/05/02 08:53:35;;;;;;;2.83;1.60;;;;;;;23.08;22.10;100685.25;1751484;80;21040;-58
2022/05/02 08:56:35;;;;;;;4.40;1.60;;;;;;;23.23;22.05;100680.27;1779673;80;21107;-58
2022/05/02 08:59:13;;;;;;;6.10;1.87;;;;;;;23.21;21.70;100673.56;1780065;80;21071;-58
2022/05/02 09:02:12;;;;;;;9.73;2.12;;;;;;;23.07;21.90;100672.39;1780264;80;21043;-60
2022/05/02 09:05:10;;;;;;;6.30;1.55;;;;;;;22.99;21.98;100675.16;1774419;80;21025;-60
2022/05/02 09:08:08;;;;;;;3.47;1.80;;;;;;;22.87;21.47;100681.53;1774476;81;21049;-59
2022/05/02 09:11:09;;;;;;;3.83;1.80;;;;;;;22.57;22.08;100668.19;1639171;84;21063;-58
2022/05/02 09:13:51;;;;;;;3.95;1.77;;;;;;;22.40;21.92;100662.78;1774535;81;21022;-58
2022/05/02 09:17:15;;;;;;;4.70;1.80;;;;;;;22.29;22.30;100658.24;1736219;81;21085;-57
2022/05/02 09:20:23;;;;;;;2.05;1.60;;;;;;;22.16;22.50;100653.13;1747833;82;21011;-59
2022/05/02 09:23:18;;;;;;;4.50;1.77;;;;;;;22.07;22.71;100653.31;1782498;79;21147;-61
2022/05/02 09:26:11;;;;;;;2.62;1.52;;;;;;;22.01;22.47;100651.55;1774367;79;20996;-60
2022/05/02 09:29:07;;;;;;;4.22;1.98;;;;;;;21.82;22.86;100646.94;1708012;83;21034;-59
2022/05/02 09:32:10;;;;;;;9.05;3.45;;;;;;;21.69;22.92;100650.17;1774207;81;21456;-58
2022/05/02 09:34:48;;;;;;;6.20;2.12;;;;;;;21.56;22.83;100646.42;1707702;84;21055;-59
2022/05/02 09:37:31;;;;;;;3.05;1.70;;;;;;;21.48;22.88;100647.20;1774378;81;21022;-59
2022/05/02 09:40:05;;;;;;;3.67;1.70;;;;;;;21.38;23.15;100642.03;1774183;81;21083;-59
2022/05/02 09:43:08;;;;;;;2.72;1.50;;;;;;;21.25;23.18;100633.55;1774515;81;20984;-59
2022/05/02 09:49:36;;;;;;;2.65;1.47;;;;;;;21.12;23.35;100622.23;1773921;81;21059;-58
2022/05/02 09:52:25;;;;;;;3.37;1.60;;;;;;;20.86;23.71;100620.26;1707794;84;21043;-58
2022/05/02 09:58:35;;;;;;;5.58;2.10;;;;;;;20.37;23.99;100624.84;1707993;84;21297;-61
2022/05/02 10:01:13;;;;;;;3.90;1.62;;;;;;;20.19;24.64;100617.63;1774189;81;21055;-58
2022/05/02 10:04:12;;;;;;;3.83;2.10;;;;;;;20.10;24.66;100617.74;1722906;81;21471;-58
2022/05/02 10:06:52;;;;;;;2.52;1.47;;;;;;;20.02;24.72;100614.01;1805820;79;21061;-59
2022/05/02 10:09:36;;;;;;;4.30;1.70;;;;;;;19.94;24.98;100613.34;1737124;82;21262;-61
2022/05/02 10:12:53;;;;;;;5.17;2.00;;;;;;;19.89;24.86;100614.66;1805849;79;21079;-60
2022/05/02 10:16:04;;;;;;;2.00;1.42;;;;;;;19.82;25.72;100611.75;1806057;79;21011;-61
2022/05/02 10:19:03;;;;;;;3.92;1.82;;;;;;;19.75;25.37;100609.14;1737549;82;21042;-61
2022/05/02 10:21:56;;;;;;;3.02;2.17;;;;;;;19.71;26.01;100600.17;1805795;79;21494;-60
2022/05/02 10:25:04;;;;;;;2.50;1.35;;;;;;;19.74;26.03;100601.05;1806012;79;21038;-60
2022/05/02 10:28:00;;;;;;;8.83;3.12;;;;;;;19.79;26.00;100593.63;1806038;79;21082;-59
2022/05/02 10:30:51;;;;;;;5.60;1.98;;;;;;;19.86;25.84;100600.41;1737617;82;21022;-60
2022/05/02 10:33:26;;;;;;;3.83;1.90;;;;;;;19.87;25.40;100595.98;1805887;79;21751;-60
2022/05/02 10:35:55;;;;;;;6.87;2.00;;;;;;;19.92;25.66;100589.66;1805531;79;21056;-60
2022/05/02 10:38:29;;;;;;;2.50;1.77;;;;;;;20.02;25.39;100595.38;1737188;82;21007;-59
2022/05/02 10:41:15;;;;;;;6.47;1.98;;;;;;;20.09;25.22;100596.04;1805934;79;21468;-59
2022/05/02 10:43:52;;;;;;;4.47;1.47;;;;;;;20.14;25.52;100586.92;1737456;82;21019;-59
2022/05/02 10:46:21;;;;;;;2.92;1.80;;;;;;;20.20;25.14;100580.36;1806090;79;21055;-58
2022/05/02 10:49:08;;;;;;;3.05;1.70;;;;;;;20.20;24.63;100575.64;1805442;79;21008;-58
2022/05/02 10:51:48;;;;;;;5.13;1.77;;;;;;;20.11;24.61;100581.33;1806426;79;20968;-59
2022/05/02 10:54:48;;;;;;;6.33;1.98;;;;;;;20.03;24.86;100578.98;1737152;82;21633;-58
2022/05/02 10:57:40;;;;;;;2.55;1.70;;;;;;;19.95;24.99;100567.74;1806053;79;21094;-60
2022/05/02 11:00:12;;;;;;;2.45;1.52;;;;;;;19.90;25.10;100567.66;1737476;82;21011;-60
2022/05/02 11:03:26;;;;;;;4.33;1.98;;;;;;;19.88;25.36;100570.41;1803603;79;21000;-61
2022/05/02 11:06:12;;;;;;;4.12;1.55;;;;;;;19.89;25.11;100561.81;1774350;81;21021;-60
2022/05/02 11:08:52;;;;;;;3.60;1.77;;;;;;;19.92;25.20;100558.52;1795735;79;21051;-62
2022/05/02 11:11:29;;;;;;;1.85;1.62;;;;;;;20.03;25.07;100548.93;1805876;79;21048;-61
2022/05/02 11:14:43;;;;;;;4.15;1.82;;;;;;;20.10;25.05;100555.16;1737035;82;21046;-59
2022/05/02 11:17:29;;;;;;;4.62;1.87;;;;;;;20.11;24.82;100537.36;1811856;79;21039;-61
2022/05/02 11:23:31;;;;;;;3.55;1.60;;;;;;;20.14;25.08;100536.84;1740859;82;21030;-61
2022/05/02 11:26:27;;;;;;;4.85;1.82;;;;;;;20.07;24.96;100532.02;1811911;79;21028;-61
2022/05/02 11:29:29;;;;;;;5.00;1.90;;;;;;;19.95;24.85;100532.97;1811786;79;21000;-60
2022/05/02 11:32:03;;;;;;;11.95;2.20;;;;;;;19.90;25.22;100534.84;1773173;79;20987;-60
2022/05/02 11:34:49;;;;;;;4.28;1.98;;;;;;;19.88;25.48;100522.58;1811818;79;21896;-64
2022/05/02 11:37:52;;;;;;;5.55;2.00;;;;;;;19.93;25.50;100525.44;1811973;79;21043;-62
2022/05/02 11:40:33;;;;;;;3.30;1.92;;;;;;;20.00;25.20;100518.84;1810054;79;21459;-62
2022/05/02 11:43:05;;;;;;;2.65;1.70;;;;;;;20.04;24.88;100521.41;1740417;82;21072;-60
2022/05/02 11:45:43;;;;;;;3.90;1.95;;;;;;;19.94;24.57;100514.60;1811933;79;21066;-59
2022/05/02 11:48:35;;;;;;;3.00;2.08;;;;;;;19.87;24.98;100518.67;1811469;79;21000;-60
2022/05/02 11:51:50;;;;;;;2.83;1.70;;;;;;;19.86;25.09;100505.86;1740480;82;21042;-59
2022/05/02 11:54:39;;;;;;;4.40;1.90;;;;;;;19.88;25.03;100500.88;1812090;79;21015;-60
2022/05/02 11:57:20;;;;;;;3.35;1.60;;;;;;;19.86;24.92;100492.80;1740998;82;21015;-59
2022/05/02 12:00:12;;;;;;;8.60;2.30;;;;;;;19.82;25.22;100491.63;1811987;79;21063;-61
2022/05/02 12:02:53;;;;;;;4.65;2.05;;;;;;;19.79;25.51;100486.58;1809352;79;21420;-62
2022/05/02 12:05:41;;;;;;;3.65;2.15;;;;;;;19.78;25.65;100484.05;1780030;80;21008;-62
2022/05/02 12:08:33;;;;;;;8.60;2.12;;;;;;;19.76;25.65;100480.69;1705502;82;21313;-63
2022/05/02 12:11:09;;;;;;;3.83;1.70;;;;;;;19.74;25.71;100482.34;1745803;82;21039;-60
2022/05/02 12:13:40;;;;;;;3.17;1.90;;;;;;;19.79;25.83;100485.73;1733466;82;21036;-60
2022/05/02 12:16:12;;;;;;;5.70;2.00;;;;;;;19.89;25.46;100479.77;1728572;82;21028;-62
2022/05/02 12:18:52;;;;;;;2.83;1.92;;;;;;;19.94;25.01;100474.27;1728227;83;21052;-63
2022/05/02 12:21:41;;;;;;;3.65;1.62;;;;;;;20.02;25.02;100470.75;1728406;83;21087;-61
2022/05/02 12:24:10;;;;;;;3.05;1.65;;;;;;;20.08;24.94;100461.38;1728607;83;21036;-61
2022/05/02 12:26:53;;;;;;;3.25;1.90;;;;;;;20.11;24.94;100463.64;1742766;80;21036;-60
2022/05/02 12:29:19;;;;;;;4.78;1.65;;;;;;;20.10;24.88;100457.78;1751503;82;21455;-61
2022/05/02 12:31:59;;;;;;;6.50;1.75;;;;;;;20.02;25.37;100455.45;1751634;81;20995;-58
2022/05/02 12:34:43;;;;;;;3.15;1.70;;;;;;;19.98;25.43;100459.85;1751704;80;21031;-60
2022/05/02 12:37:30;;;;;;;4.55;2.10;;;;;;;19.99;25.30;100457.36;1751577;81;21079;-61
2022/05/02 12:40:13;;;;;;;;;;;;;;;19.99;25.13;100455.42;1759733;81;21265;-59
2022/05/02 12:42:50;;;;;;;5.60;1.85;;;;;;;19.99;24.86;100450.41;1751533;82;20151;-61
2022/05/02 12:45:21;;;;;;;4.62;1.67;;;;;;;19.98;24.88;100452.34;1751745;82;21067;-61